Time,TemperatureF,DewpointF,PressureIn,WindDirection,WindDirectionDegrees,WindSpeedMPH,WindSpeedGustMPH,Humidity,HourlyPrecipIn,Conditions,Clouds,dailyrainin,SoftwareType,DateUTC
2013-10-31 00:23:00,71.0,71.0,-100.00,North,-999,-999.0,-999.0,100,0.00,,,0.05,,2013-10-31 05:23:00,
2013-10-31 00:52:00,71.0,71.0,-100.00,North,-999,-999.0,-999.0,100,0.00,,,0.03,,2013-10-31 05:52:00,
2013-10-31 01:22:00,71.0,71.0,-100.00,North,-999,-999.0,-999.0,100,0.00,,,-99.99,,2013-10-31 06:22:00,
2013-10-31 01:53:00,71.0,71.0,-100.00,North,-999,-999.0,-999.0,100,0.00,,,0.03,,2013-10-31 06:53:00,
2013-10-31 02:21:00,70.0,70.0,-100.00,North,-999,-999.0,-999.0,100,0.00,,,0.03,,2013-10-31 07:21:00,
2013-10-31 02:52:00,70.0,70.0,-100.00,North,-999,-999.0,-999.0,100,0.00,,,0.03,,2013-10-31 07:52:00,
2013-10-31 03:22:00,70.0,70.0,-100.00,North,-999,-999.0,-999.0,100,0.00,,,0.03,,2013-10-31 08:22:00,
2013-10-31 03:52:00,70.0,70.0,-100.00,North,-999,-999.0,-999.0,100,0.00,,,0.03,,2013-10-31 08:52:00,
2013-10-31 04:21:00,70.0,70.0,-100.00,North,-999,-999.0,-999.0,100,0.00,,,0.03,,2013-10-31 09:21:00,
2013-10-31 04:53:00,69.0,69.0,-100.00,North,-999,-999.0,-999.0,100,0.01,,,0.04,,2013-10-31 09:53:00,
2013-10-31 05:23:00,69.0,67.0,-100.00,North,-999,-999.0,-999.0,93,0.01,,,0.04,,2013-10-31 10:23:00,
2013-10-31 05:53:00,68.0,67.0,-100.00,North,-999,-999.0,-999.0,96,0.00,,,0.02,,2013-10-31 10:53:00,
2013-10-31 06:21:00,68.0,65.0,-100.00,North,-999,-999.0,-999.0,88,0.00,,,0.01,,2013-10-31 11:21:00,
2013-10-31 06:52:00,70.0,62.0,-100.00,North,-999,-999.0,-999.0,74,0.00,,,0.01,,2013-10-31 11:52:00,
2013-10-31 07:21:00,70.0,61.0,-100.00,North,-999,-999.0,-999.0,71,0.00,,,0.01,,2013-10-31 12:21:00,
2013-10-31 07:32:00,70.0,61.0,-100.00,North,-999,-999.0,-999.0,71,0.00,,,0.01,,2013-10-31 12:32:00,
2013-10-31 07:42:00,70.0,61.0,-100.00,North,-999,-999.0,-999.0,71,0.00,,,0.01,,2013-10-31 12:42:00,
2013-10-31 07:52:00,70.0,61.0,-100.00,North,-999,-999.0,-999.0,71,0.00,,,0.01,,2013-10-31 12:52:00,
2013-10-31 09:52:00,73.0,58.0,-100.00,North,-999,-999.0,-999.0,58,-99.99,,,0.01,,2013-10-31 14:52:00,
2013-10-31 10:02:00,73.0,58.0,-100.00,North,-999,-999.0,-999.0,58,-99.99,,,0.01,,2013-10-31 15:02:00,
2013-10-31 10:11:00,73.0,58.0,-100.00,North,-999,-999.0,-999.0,58,-99.99,,,0.01,,2013-10-31 15:11:00,
2013-10-31 10:22:00,73.0,58.0,-100.00,North,-999,-999.0,-999.0,58,-99.99,,,0.01,,2013-10-31 15:22:00,
2013-10-31 11:22:00,75.0,55.0,-100.00,North,-999,-999.0,-999.0,51,-99.99,,,-99.99,,2013-10-31 16:22:00,
2013-10-31 11:53:00,74.0,54.0,-100.00,North,-999,-999.0,-999.0,49,0.00,,,-99.99,,2013-10-31 16:53:00,
2013-10-31 12:03:00,74.0,54.0,-100.00,North,-999,-999.0,-999.0,49,0.00,,,-99.99,,2013-10-31 17:03:00,
2013-10-31 12:22:00,75.0,-99.9,-100.00,North,-999,-999.0,-999.0,32,0.00,,,-99.99,,2013-10-31 17:22:00,
2013-10-31 12:34:00,75.0,-99.9,-100.00,North,-999,-999.0,-999.0,32,0.00,,,-99.99,,2013-10-31 17:34:00,
2013-10-31 12:43:00,75.0,43.0,-100.00,North,-999,-999.0,-999.0,32,0.00,,,-99.99,,2013-10-31 17:43:00,
2013-10-31 12:52:00,75.0,43.0,-100.00,North,-999,-999.0,-999.0,32,0.00,,,-99.99,,2013-10-31 17:52:00,
2013-10-31 13:22:00,76.0,-99.9,-100.00,North,-999,-999.0,-999.0,19,0.00,,,-99.99,,2013-10-31 18:22:00,
2013-10-31 13:52:00,76.0,32.0,-100.00,North,-999,-999.0,-999.0,20,0.00,,,-99.99,,2013-10-31 18:52:00,
2013-10-31 14:21:00,75.0,29.0,-100.00,North,-999,-999.0,-999.0,18,0.00,,,-99.99,,2013-10-31 19:21:00,
2013-10-31 14:52:00,76.0,25.0,-100.00,North,-999,-999.0,-999.0,15,0.00,,,-99.99,,2013-10-31 19:52:00,
2013-10-31 15:22:00,76.0,25.0,-100.00,North,-999,-999.0,-999.0,15,0.00,,,-99.99,,2013-10-31 20:22:00,
2013-10-31 15:52:00,76.0,28.0,-100.00,North,-999,-999.0,-999.0,17,0.00,,,-99.99,,2013-10-31 20:52:00,
2013-10-31 16:21:00,76.0,28.0,-100.00,North,-999,-999.0,-999.0,17,0.00,,,-99.99,,2013-10-31 21:21:00,
2013-10-31 16:54:00,77.0,25.0,-100.00,North,-999,-999.0,-999.0,15,0.00,,,-99.99,,2013-10-31 21:54:00,
2013-10-31 17:24:00,77.0,25.0,-100.00,North,-999,-999.0,-999.0,15,0.00,,,-99.99,,2013-10-31 22:24:00,
2013-10-31 17:53:00,77.0,24.0,-100.00,North,-999,-999.0,-999.0,14,0.00,,,-99.99,,2013-10-31 22:53:00,
2013-10-31 18:12:00,76.0,23.0,-100.00,North,-999,-999.0,-999.0,14,0.00,,,-99.99,,2013-10-31 23:12:00,
2013-10-31 18:22:00,76.0,23.0,-100.00,North,-999,-999.0,-999.0,14,0.00,,,-99.99,,2013-10-31 23:22:00,
2013-10-31 18:54:00,73.0,29.0,-100.00,North,-999,-999.0,-999.0,20,0.00,,,-99.99,,2013-10-31 23:54:00,
2013-10-31 23:24:00,46.0,43.0,-100.00,North,-999,-999.0,-999.0,92,0.00,,,-99.99,,2013-11-01 04:24:00,
2013-10-31 23:54:00,46.0,43.0,-100.00,North,-999,-999.0,-999.0,90,0.00,,,-99.99,,2013-11-01 04:54:00,